Terminal Aerodrome Forecast
Issued by NWS

Home | Current Version | Previous Version | Text Only | Print | Product List | Glossary On
Versions: 1 2 3 4 5 6 7 8 9 10 11 12 13
575
FTAK31 PAJN 231137
TAFAWG
TAF
PAWG 231137Z 2312/2412 11011KT P6SM -RA SCT008 SCT010 OVC035
      TEMPO 2312/2316 4SM -RA BR SCT010 OVC025
     FM231600 12012G22KT 3SM RA BR BKN006 OVC015 WS020/16030KT
     FM240000 12012KT 4SM -SHRA BR FEW006 SCT010 OVC025
     FM240500 15008KT 4SM -SHRA BR BKN006 OVC012
      AMD LTD TO CLD VIS AND WIND TIL 231500=

USA.gov is the U.S. government's official web portal to all federal, state and local government web resources and services.